Time;durP1;ratioP1;P1;durP2;ratioP2;P2;SDS_P1;SDS_P2;PMS_P1;PMS_P2;Temp;Humidity;BMP_temperature;BMP_pressure;BME280_temperature;BME280_humidity;BME280_pressure;Samples;Min_cycle;Max_cycle;Signal;HPM_P1;HPM_P2
2022/06/25 00:02:01;;;;;;;18.27;11.88;;;18.00;99.90;;;;;;5015803;28;20092;-71
2022/06/25 00:07:14;;;;;;;15.02;10.98;;;18.00;99.90;;;;;;5008114;28;20037;-73
2022/06/25 00:09:39;;;;;;;16.00;12.02;;;18.00;99.90;;;;;;5009130;28;20052;-69
2022/06/25 00:14:50;;;;;;;14.85;10.70;;;17.90;99.90;;;;;;5025198;28;20582;-70
2022/06/25 00:17:15;;;;;;;18.35;13.00;;;17.90;99.90;;;;;;5019635;28;20056;-69
2022/06/25 00:19:41;;;;;;;15.48;11.77;;;17.90;99.90;;;;;;5014622;28;20184;-69
2022/06/25 00:22:07;;;;;;;18.20;11.73;;;17.90;99.90;;;;;;5019796;28;20041;-69
2022/06/25 00:24:32;;;;;;;16.83;12.10;;;17.90;99.90;;;;;;5015641;28;20128;-70
2022/06/25 00:26:58;;;;;;;18.23;12.45;;;17.90;99.90;;;;;;5019952;28;20249;-70
2022/06/25 00:29:24;;;;;;;17.60;12.73;;;17.90;99.90;;;;;;5015885;28;20034;-69
2022/06/25 00:31:49;;;;;;;17.77;12.65;;;17.90;99.90;;;;;;5009619;28;20057;-69
2022/06/25 00:34:15;;;;;;;15.90;10.93;;;17.80;99.90;;;;;;5006584;28;20128;-69
2022/06/25 00:36:40;;;;;;;16.90;11.65;;;17.80;99.90;;;;;;5011110;28;20052;-69
2022/06/25 00:39:06;;;;;;;17.65;12.65;;;17.80;99.90;;;;;;5003581;28;20092;-69
2022/06/25 00:41:32;;;;;;;18.00;12.63;;;17.80;99.90;;;;;;5016928;28;20502;-69
2022/06/25 00:43:58;;;;;;;15.90;11.43;;;17.80;99.90;;;;;;5023224;28;20501;-69
2022/06/25 00:46:24;;;;;;;17.02;12.52;;;17.70;99.90;;;;;;5015985;28;20129;-70
2022/06/25 00:48:49;;;;;;;17.38;12.73;;;17.70;99.90;;;;;;5018303;28;20525;-70
2022/06/25 00:51:15;;;;;;;16.83;12.63;;;17.70;99.90;;;;;;5024583;28;20046;-70
2022/06/25 00:53:43;;;;;;;18.75;12.65;;;17.70;99.90;;;;;;5025002;28;20041;-69
2022/06/25 00:56:10;;;;;;;17.70;12.27;;;17.70;99.90;;;;;;5019449;28;20050;-69
2022/06/25 00:58:39;;;;;;;17.70;11.68;;;17.70;99.90;;;;;;5002840;28;20041;-69
2022/06/25 01:01:05;;;;;;;16.90;11.57;;;17.60;99.90;;;;;;5016010;28;20049;-70
2022/06/25 01:03:31;;;;;;;16.00;11.50;;;17.60;99.90;;;;;;5020155;28;20049;-69
2022/06/25 01:05:56;;;;;;;15.20;11.43;;;17.60;99.90;;;;;;4992185;28;20061;-69
2022/06/25 01:08:23;;;;;;;14.77;11.10;;;17.60;99.90;;;;;;5010451;28;20037;-69
2022/06/25 01:10:48;;;;;;;;;;;17.60;99.90;;;;;;5013091;28;20439;-69
2022/06/25 01:13:14;;;;;;;17.58;11.80;;;17.60;99.90;;;;;;5018241;28;19921;-70
2022/06/25 01:15:40;;;;;;;14.73;10.25;;;17.60;99.90;;;;;;5014000;28;20191;-70
2022/06/25 01:18:07;;;;;;;16.38;11.85;;;17.60;99.90;;;;;;5013271;28;20469;-69
2022/06/25 01:20:34;;;;;;;17.17;11.27;;;17.60;99.90;;;;;;5022368;28;20170;-69
2022/06/25 01:23:00;;;;;;;14.52;11.38;;;17.60;99.90;;;;;;5014107;28;20049;-70
2022/06/25 01:25:33;;;;;;;15.85;11.00;;;17.50;99.90;;;;;;5011888;28;20072;-69
2022/06/25 01:27:59;;;;;;;17.38;10.85;;;17.50;99.90;;;;;;5005868;28;20082;-70
2022/06/25 01:30:25;;;;;;;15.88;11.07;;;17.50;99.90;;;;;;5009203;28;20038;-69
2022/06/25 01:32:51;;;;;;;15.65;10.90;;;17.50;99.90;;;;;;5007402;28;20110;-70
2022/06/25 01:35:17;;;;;;;14.77;10.70;;;17.50;99.90;;;;;;4990165;28;22061;-69
2022/06/25 01:37:42;;;;;;;15.35;11.20;;;17.50;99.90;;;;;;5000715;28;20099;-69
2022/06/25 01:40:08;;;;;;;16.95;11.88;;;17.50;99.90;;;;;;5007757;28;20088;-70
2022/06/25 01:45:18;;;;;;;13.98;10.70;;;17.50;99.90;;;;;;5017691;28;20045;-70
2022/06/25 01:47:44;;;;;;;15.63;11.07;;;17.40;99.90;;;;;;5017359;28;20086;-69
2022/06/25 01:50:10;;;;;;;15.85;11.60;;;17.50;99.90;;;;;;5019857;28;20049;-69
2022/06/25 01:52:35;;;;;;;;;;;17.40;99.90;;;;;;5012714;28;20040;-70
2022/06/25 01:55:01;;;;;;;15.73;10.43;;;17.40;99.90;;;;;;5027474;28;19925;-70
2022/06/25 01:57:27;;;;;;;14.68;10.55;;;17.40;99.90;;;;;;5022825;28;20478;-70
2022/06/25 01:59:53;;;;;;;16.88;11.05;;;17.40;99.90;;;;;;5020558;28;20040;-70
2022/06/25 02:02:18;;;;;;;14.32;10.48;;;17.40;99.90;;;;;;5024275;28;20029;-69
2022/06/25 02:04:44;;;;;;;15.95;10.63;;;17.50;99.90;;;;;;5009424;28;20057;-69
2022/06/25 02:07:10;;;;;;;15.07;10.68;;;17.40;99.90;;;;;;5015267;28;20049;-70
2022/06/25 02:09:36;;;;;;;17.10;11.48;;;17.40;99.90;;;;;;5014160;28;20046;-70
2022/06/25 02:12:02;;;;;;;12.68;8.75;;;17.40;99.90;;;;;;5018563;28;20034;-70
2022/06/25 02:14:28;;;;;;;14.50;10.88;;;17.40;99.90;;;;;;5022316;28;20441;-70
2022/06/25 02:16:54;;;;;;;14.75;10.68;;;17.40;99.90;;;;;;5015960;28;20045;-70
2022/06/25 02:19:19;;;;;;;15.55;10.35;;;17.40;99.90;;;;;;5017577;28;20033;-70
2022/06/25 02:21:45;;;;;;;11.73;9.07;;;17.40;99.90;;;;;;5007831;28;20061;-70
2022/06/25 02:24:11;;;;;;;14.05;10.15;;;17.40;99.90;;;;;;5020836;28;20050;-70
2022/06/25 02:26:36;;;;;;;15.27;10.05;;;17.40;99.90;;;;;;5022521;28;20036;-70
2022/06/25 02:29:02;;;;;;;13.40;9.88;;;17.40;99.90;;;;;;5025288;28;20096;-70
2022/06/25 02:31:28;;;;;;;14.05;9.73;;;17.40;99.90;;;;;;5022369;28;20044;-70
2022/06/25 02:33:54;;;;;;;13.35;8.35;;;17.40;99.90;;;;;;5014722;28;20046;-69
2022/06/25 02:36:20;;;;;;;16.52;9.73;;;17.40;99.90;;;;;;5020824;28;20055;-70
2022/06/25 02:38:45;;;;;;;14.50;9.23;;;17.40;99.90;;;;;;5025026;28;20037;-70
2022/06/25 02:41:11;;;;;;;12.23;8.27;;;17.40;99.90;;;;;;5027464;28;20447;-70
2022/06/25 02:43:37;;;;;;;12.45;8.80;;;17.40;99.90;;;;;;5021328;28;20479;-70
2022/06/25 02:46:03;;;;;;;11.65;7.93;;;17.40;99.90;;;;;;5020942;28;20045;-70
2022/06/25 02:48:28;;;;;;;10.48;7.90;;;17.50;99.90;;;;;;5024483;28;20038;-70
2022/06/25 02:50:54;;;;;;;13.27;8.05;;;17.40;99.90;;;;;;5015408;28;20084;-70
2022/06/25 02:53:20;;;;;;;10.20;7.53;;;17.40;99.90;;;;;;5020695;28;20033;-69
2022/06/25 03:01:14;;;;;;;9.30;6.80;;;17.50;99.90;;;;;;5020747;28;20080;-70
2022/06/25 03:03:39;;;;;;;10.73;7.22;;;17.50;99.90;;;;;;5024146;28;20107;-69
2022/06/25 03:06:05;;;;;;;10.13;7.35;;;17.50;99.90;;;;;;5021569;28;20046;-70
2022/06/25 03:08:30;;;;;;;10.93;8.23;;;17.50;99.90;;;;;;5017316;28;20038;-70
2022/06/25 03:10:56;;;;;;;12.75;7.78;;;17.50;99.90;;;;;;5023530;28;20597;-70
2022/06/25 03:13:22;;;;;;;9.85;7.57;;;17.50;99.90;;;;;;5021308;28;20044;-69
2022/06/25 03:15:47;;;;;;;9.50;7.05;;;17.50;99.90;;;;;;5016315;28;20033;-69
2022/06/25 03:18:13;;;;;;;9.73;7.15;;;17.50;99.90;;;;;;5023956;28;20041;-70
2022/06/25 03:20:39;;;;;;;10.93;7.43;;;17.40;99.90;;;;;;5022703;28;20044;-69
2022/06/25 03:23:05;;;;;;;10.90;7.43;;;17.40;99.90;;;;;;5022023;28;20532;-69
2022/06/25 03:25:31;;;;;;;9.15;6.70;;;17.40;99.90;;;;;;5014936;28;20043;-69
2022/06/25 03:27:57;;;;;;;9.13;6.13;;;17.40;99.90;;;;;;5017774;28;20397;-69
2022/06/25 03:30:23;;;;;;;;;;;17.40;99.90;;;;;;5021596;28;20052;-69
2022/06/25 03:32:49;;;;;;;7.95;6.13;;;17.40;99.90;;;;;;5019534;28;19925;-69
2022/06/25 03:35:14;;;;;;;10.18;6.57;;;17.40;99.90;;;;;;5009239;28;20145;-69
2022/06/25 03:37:40;;;;;;;9.43;6.05;;;17.40;99.90;;;;;;5018880;28;20089;-69
2022/06/25 03:40:06;;;;;;;9.18;6.20;;;17.40;99.90;;;;;;5015442;28;20091;-69
2022/06/25 03:42:32;;;;;;;8.98;6.45;;;17.40;99.90;;;;;;5019024;28;20047;-69
2022/06/25 03:44:57;;;;;;;9.32;6.10;;;17.40;99.90;;;;;;5017826;28;20041;-69
2022/06/25 03:49:51;;;;;;;9.20;6.13;;;17.40;99.90;;;;;;5020279;28;20053;-71
2022/06/25 03:52:16;;;;;;;8.63;5.75;;;17.40;99.90;;;;;;5018701;28;20049;-71
2022/06/25 03:54:42;;;;;;;7.20;5.25;;;17.40;99.90;;;;;;5019871;28;20080;-71
2022/06/25 03:57:08;;;;;;;8.50;6.30;;;17.40;99.90;;;;;;5023157;28;20413;-71
2022/06/25 03:59:33;;;;;;;7.22;5.10;;;17.40;99.90;;;;;;5024788;28;20044;-71
2022/06/25 04:01:59;;;;;;;8.10;5.38;;;17.40;99.90;;;;;;5025199;28;20415;-71
2022/06/25 04:04:25;;;;;;;6.88;5.10;;;17.40;99.90;;;;;;5021180;28;20048;-71
2022/06/25 04:06:50;;;;;;;6.35;4.95;;;17.40;99.90;;;;;;5021595;28;20073;-71
2022/06/25 04:09:16;;;;;;;8.82;5.18;;;17.40;99.90;;;;;;5025893;28;20084;-71
2022/06/25 04:11:41;;;;;;;6.40;4.50;;;17.40;99.90;;;;;;5018873;28;20033;-71
2022/06/25 04:14:07;;;;;;;6.57;4.93;;;17.50;99.90;;;;;;5024203;28;20030;-71
2022/06/25 04:16:33;;;;;;;7.05;5.20;;;17.50;99.90;;;;;;5020810;28;20128;-71
2022/06/25 04:18:59;;;;;;;7.00;5.30;;;17.50;99.90;;;;;;5023342;28;20078;-71
2022/06/25 04:21:24;;;;;;;8.88;5.95;;;17.50;99.90;;;;;;5023500;28;20033;-71
2022/06/25 04:23:50;;;;;;;6.28;4.97;;;17.50;99.90;;;;;;5024403;28;20034;-71
2022/06/25 04:26:16;;;;;;;7.10;4.65;;;17.50;99.90;;;;;;5024298;28;20038;-71
2022/06/25 04:31:26;;;;;;;8.15;4.95;;;17.50;99.90;;;;;;5017396;28;20066;-71
2022/06/25 04:33:51;;;;;;;7.82;5.30;;;17.50;99.90;;;;;;5017359;28;20080;-71
2022/06/25 04:36:18;;;;;;;6.93;4.80;;;17.50;99.90;;;;;;5014045;28;20175;-71
2022/06/25 04:38:45;;;;;;;6.95;4.63;;;17.60;99.90;;;;;;5016205;28;20045;-71
2022/06/25 04:41:11;;;;;;;8.25;4.82;;;17.60;99.90;;;;;;5021184;28;20433;-71
2022/06/25 04:43:37;;;;;;;6.60;5.10;;;17.60;99.90;;;;;;5019363;28;20037;-71
2022/06/25 04:46:03;;;;;;;9.02;4.57;;;17.60;99.90;;;;;;5024278;28;20069;-71
2022/06/25 04:48:28;;;;;;;6.35;4.93;;;17.60;99.90;;;;;;5020542;28;20046;-71
2022/06/25 04:50:54;;;;;;;6.57;4.47;;;17.70;99.90;;;;;;5019810;28;20124;-71
2022/06/25 04:53:19;;;;;;;7.35;4.80;;;17.70;99.90;;;;;;5024872;28;20040;-71
2022/06/25 04:55:45;;;;;;;6.72;4.30;;;17.70;99.90;;;;;;5019810;28;20077;-71
2022/06/25 04:58:11;;;;;;;6.50;4.68;;;17.70;99.90;;;;;;5021151;28;20034;-71
2022/06/25 05:00:37;;;;;;;5.63;4.40;;;17.70;99.90;;;;;;5022440;28;20029;-70
2022/06/25 05:03:03;;;;;;;7.03;4.25;;;17.80;99.90;;;;;;5023922;28;20107;-70
2022/06/25 05:05:28;;;;;;;12.82;4.65;;;17.80;99.90;;;;;;5022297;28;20033;-71
2022/06/25 05:07:54;;;;;;;7.57;4.20;;;17.80;99.90;;;;;;5017515;28;20112;-71
2022/06/25 05:10:20;;;;;;;5.40;4.15;;;17.80;99.90;;;;;;5021822;28;20038;-70
2022/06/25 05:15:29;;;;;;;6.63;4.35;;;17.90;99.90;;;;;;5011784;28;20048;-70
2022/06/25 05:17:55;;;;;;;5.85;4.18;;;17.90;99.90;;;;;;5022250;28;20045;-71
2022/06/25 05:20:21;;;;;;;5.15;4.03;;;17.90;99.90;;;;;;5020206;28;20045;-70
2022/06/25 05:22:47;;;;;;;6.75;4.63;;;18.00;99.90;;;;;;5023559;28;20037;-71
2022/06/25 05:25:12;;;;;;;5.82;3.92;;;18.00;99.90;;;;;;5024708;28;20128;-71
2022/06/25 05:27:38;;;;;;;5.15;4.03;;;18.00;99.90;;;;;;5028498;28;20041;-70
2022/06/25 05:30:05;;;;;;;7.18;4.40;;;18.00;99.90;;;;;;5026487;28;20502;-71
2022/06/25 05:32:31;;;;;;;5.60;4.25;;;18.10;99.90;;;;;;5027938;28;20036;-70
2022/06/25 05:34:57;;;;;;;4.57;3.75;;;18.10;99.90;;;;;;5021046;28;20033;-71
2022/06/25 05:37:23;;;;;;;10.45;4.07;;;18.10;99.90;;;;;;5024321;28;20049;-71
2022/06/25 05:39:49;;;;;;;6.13;3.65;;;18.20;99.90;;;;;;5018468;28;20437;-71
2022/06/25 05:42:15;;;;;;;7.28;4.00;;;18.20;99.90;;;;;;5027981;28;20038;-71
2022/06/25 05:44:41;;;;;;;7.95;4.15;;;18.20;99.90;;;;;;5022328;28;20041;-70
2022/06/25 05:47:06;;;;;;;6.68;3.78;;;18.30;99.90;;;;;;5039585;28;20398;-71
2022/06/25 05:49:32;;;;;;;5.47;3.90;;;18.30;99.90;;;;;;5022362;28;20649;-71
2022/06/25 05:51:57;;;;;;;5.88;4.05;;;18.40;99.90;;;;;;5030318;28;20032;-71
2022/06/25 05:54:26;;;;;;;5.72;4.22;;;18.40;99.90;;;;;;5022271;28;20509;-71
2022/06/25 05:56:52;;;;;;;6.90;3.92;;;18.40;99.90;;;;;;5027543;28;20136;-70
2022/06/25 05:59:18;;;;;;;6.03;3.85;;;18.50;99.90;;;;;;5029390;28;20041;-71
2022/06/25 06:01:43;;;;;;;5.72;4.00;;;18.50;99.90;;;;;;5015760;28;20394;-70
2022/06/25 06:04:09;;;;;;;8.48;4.53;;;18.60;99.90;;;;;;5021433;28;20520;-70
2022/06/25 06:06:34;;;;;;;6.57;4.30;;;18.60;99.90;;;;;;5016583;28;20066;-70
2022/06/25 06:09:00;;;;;;;6.72;4.40;;;18.60;99.90;;;;;;5020310;28;20042;-70
2022/06/25 06:11:26;;;;;;;5.80;4.00;;;18.70;99.90;;;;;;5022511;28;20049;-70
2022/06/25 06:13:51;;;;;;;5.40;3.63;;;18.70;99.90;;;;;;5026929;28;20482;-70
2022/06/25 06:16:17;;;;;;;5.38;3.85;;;18.80;99.90;;;;;;5021309;28;20474;-71
2022/06/25 06:18:42;;;;;;;6.60;3.80;;;18.80;99.90;;;;;;5022185;28;20033;-71
2022/06/25 06:21:08;;;;;;;6.40;3.88;;;18.90;99.90;;;;;;5025718;28;20156;-71
2022/06/25 06:23:34;;;;;;;4.85;3.63;;;18.90;99.90;;;;;;5028048;28;20112;-71
2022/06/25 06:26:02;;;;;;;7.35;3.70;;;19.00;99.90;;;;;;5018622;28;20168;-70
2022/06/25 06:28:28;;;;;;;6.47;4.22;;;19.10;99.90;;;;;;5022719;28;20390;-70
2022/06/25 06:30:53;;;;;;;7.13;4.30;;;19.10;99.90;;;;;;5024191;28;20214;-70
2022/06/25 06:33:19;;;;;;;9.65;3.90;;;19.10;99.90;;;;;;5023531;28;20064;-70
2022/06/25 06:35:45;;;;;;;5.40;3.95;;;19.10;99.90;;;;;;5019220;28;20111;-70
2022/06/25 06:38:10;;;;;;;7.47;3.88;;;19.20;99.90;;;;;;5019907;28;20072;-70
2022/06/25 06:40:36;;;;;;;7.28;3.38;;;19.30;99.90;;;;;;5026536;28;20045;-70
2022/06/25 06:43:02;;;;;;;6.10;3.58;;;19.30;99.90;;;;;;5028933;28;20041;-71
2022/06/25 06:45:28;;;;;;;9.27;3.75;;;19.40;99.90;;;;;;5023837;28;20041;-70
2022/06/25 06:47:53;;;;;;;5.80;3.05;;;19.40;99.90;;;;;;5023807;28;20033;-70
2022/06/25 06:50:19;;;;;;;6.30;3.53;;;19.50;99.90;;;;;;5026163;28;20034;-70
2022/06/25 06:52:45;;;;;;;5.10;3.45;;;19.50;99.90;;;;;;5024039;28;20029;-70
2022/06/25 06:55:10;;;;;;;8.13;3.40;;;19.60;99.90;;;;;;5028477;28;20156;-70
2022/06/25 06:57:36;;;;;;;4.70;2.85;;;19.70;99.90;;;;;;5027806;28;20050;-70
2022/06/25 07:00:04;;;;;;;4.43;2.88;;;19.80;99.90;;;;;;5026676;28;20040;-70
2022/06/25 07:02:30;;;;;;;4.20;2.70;;;19.80;99.90;;;;;;5025550;28;20038;-70
2022/06/25 07:04:56;;;;;;;4.00;2.75;;;19.90;99.90;;;;;;5023586;28;20117;-71
2022/06/25 07:07:21;;;;;;;4.68;2.80;;;19.90;99.90;;;;;;5024185;28;20111;-70
2022/06/25 07:09:47;;;;;;;4.68;3.13;;;20.00;99.90;;;;;;5021102;28;20121;-70
2022/06/25 07:12:13;;;;;;;4.30;2.15;;;20.00;99.90;;;;;;5026061;28;20041;-69
2022/06/25 07:14:38;;;;;;;5.05;2.75;;;20.10;99.90;;;;;;5020891;28;20042;-70
2022/06/25 07:17:04;;;;;;;5.22;2.75;;;20.10;99.90;;;;;;5018017;28;20037;-73
2022/06/25 07:19:30;;;;;;;3.95;2.25;;;20.20;99.90;;;;;;5023712;28;20033;-69
2022/06/25 07:21:57;;;;;;;4.50;2.13;;;20.20;99.90;;;;;;5024183;28;20116;-70
2022/06/25 07:24:23;;;;;;;4.05;2.58;;;20.30;99.90;;;;;;5027460;28;20204;-72
2022/06/25 07:26:49;;;;;;;3.75;2.13;;;20.30;99.90;;;;;;5017857;28;20092;-71
2022/06/25 07:29:15;;;;;;;6.07;2.13;;;20.30;99.90;;;;;;5025547;28;20038;-71
2022/06/25 07:31:41;;;;;;;4.30;1.92;;;20.40;99.90;;;;;;5023668;28;20033;-72
2022/06/25 07:34:07;;;;;;;5.32;2.45;;;20.40;99.90;;;;;;5015910;28;20048;-72
2022/06/25 07:36:33;;;;;;;3.58;1.90;;;20.40;99.90;;;;;;5021918;28;20038;-71
2022/06/25 07:39:00;;;;;;;3.13;2.10;;;20.50;99.90;;;;;;5021584;28;20045;-72
2022/06/25 07:41:26;;;;;;;4.93;2.25;;;20.50;99.90;;;;;;5022679;28;20049;-72
2022/06/25 07:43:53;;;;;;;7.22;2.40;;;20.50;99.90;;;;;;5027756;28;20172;-71
2022/06/25 07:46:19;;;;;;;3.45;1.83;;;20.60;99.90;;;;;;5015382;28;20049;-72
2022/06/25 07:48:45;;;;;;;3.78;1.90;;;20.60;99.90;;;;;;5018746;28;20052;-75
2022/06/25 07:53:55;;;;;;;6.18;2.30;;;20.70;99.90;;;;;;5024103;28;20042;-74
2022/06/25 07:56:22;;;;;;;4.07;2.20;;;20.80;99.90;;;;;;5033672;28;20044;-74
2022/06/25 07:58:48;;;;;;;3.55;2.05;;;20.80;99.90;;;;;;5024528;28;20654;-74
2022/06/25 08:01:13;;;;;;;5.28;2.60;;;20.80;99.90;;;;;;5007374;28;20049;-74
2022/06/25 08:03:39;;;;;;;5.93;2.30;;;20.90;99.90;;;;;;5019522;28;20060;-74
2022/06/25 08:06:05;;;;;;;3.90;2.03;;;20.90;99.90;;;;;;5017370;28;20060;-72
2022/06/25 08:08:31;;;;;;;6.32;2.95;;;21.00;99.90;;;;;;5019566;28;20481;-72
2022/06/25 08:10:57;;;;;;;4.50;2.53;;;21.00;99.90;;;;;;5024574;28;20065;-72
2022/06/25 08:13:22;;;;;;;5.18;2.45;;;21.00;99.90;;;;;;5020682;28;20030;-73
2022/06/25 08:15:49;;;;;;;7.40;3.28;;;21.00;99.90;;;;;;5020776;28;20379;-72
2022/06/25 08:18:15;;;;;;;4.47;2.42;;;21.00;99.90;;;;;;5022078;28;20047;-73
2022/06/25 08:20:41;;;;;;;4.15;2.50;;;21.00;99.90;;;;;;5024684;28;20577;-72
2022/06/25 08:23:07;;;;;;;4.13;2.50;;;21.00;99.90;;;;;;5024543;28;20033;-72
2022/06/25 08:25:33;;;;;;;;;;;21.00;99.90;;;;;;5015864;28;20103;-72
2022/06/25 08:27:58;;;;;;;6.55;2.90;;;20.90;99.90;;;;;;5018439;28;19917;-72
2022/06/25 08:30:25;;;;;;;6.20;2.88;;;20.90;99.90;;;;;;5023929;28;20604;-72
2022/06/25 08:32:51;;;;;;;6.55;2.63;;;20.90;99.90;;;;;;5023987;28;20065;-72
2022/06/25 08:35:17;;;;;;;8.15;2.92;;;20.80;99.90;;;;;;5018848;28;20058;-73
2022/06/25 08:37:48;;;;;;;4.25;1.92;;;20.80;99.90;;;;;;5023608;28;20042;-73
2022/06/25 08:40:16;;;;;;;6.05;3.05;;;20.90;99.90;;;;;;5015596;28;20045;-72
2022/06/25 08:42:42;;;;;;;6.80;3.03;;;21.00;99.90;;;;;;5040902;28;20490;-72
2022/06/25 08:45:09;;;;;;;6.22;2.85;;;21.00;99.90;;;;;;5024220;28;20040;-72
2022/06/25 08:47:41;;;;;;;5.97;2.75;;;21.20;99.90;;;;;;5020675;28;20042;-73
2022/06/25 08:50:10;;;;;;;5.50;3.08;;;21.30;99.90;;;;;;5018586;28;20034;-72
2022/06/25 08:52:37;;;;;;;5.60;2.58;;;21.30;99.90;;;;;;5022244;28;20318;-72
2022/06/25 08:55:03;;;;;;;4.68;2.42;;;21.30;99.90;;;;;;5004092;28;20045;-72
2022/06/25 08:57:29;;;;;;;;;;;21.40;99.90;;;;;;5014856;28;20042;-73
2022/06/25 08:59:56;;;;;;;3.53;1.98;;;21.50;99.90;;;;;;5040590;28;20274;-73
2022/06/25 09:02:21;;;;;;;2.75;1.40;;;21.60;99.90;;;;;;5024526;28;20115;-73
2022/06/25 09:04:47;;;;;;;;;;;21.70;99.90;;;;;;5021599;28;20081;-74
2022/06/25 09:07:15;;;;;;;5.97;1.58;;;21.80;99.90;;;;;;4998087;28;20345;-73
2022/06/25 09:09:45;;;;;;;3.33;1.73;;;21.80;99.90;;;;;;5022814;28;20072;-73
2022/06/25 09:12:14;;;;;;;3.95;1.90;;;21.90;99.90;;;;;;5019171;28;20061;-73
2022/06/25 09:14:40;;;;;;;4.93;2.30;;;22.00;99.90;;;;;;5020579;28;20041;-74
2022/06/25 09:17:08;;;;;;;5.30;1.98;;;22.10;99.90;;;;;;5016312;28;20097;-73
2022/06/25 09:19:33;;;;;;;5.35;1.85;;;22.10;99.90;;;;;;5023943;28;20048;-74
2022/06/25 09:22:00;;;;;;;;;;;22.10;99.90;;;;;;5012083;28;20343;-74
2022/06/25 09:24:47;;;;;;;3.85;1.92;;;22.10;99.90;;;;;;5023276;28;19925;-74
2022/06/25 09:27:16;;;;;;;4.00;1.30;;;22.20;99.90;;;;;;5005942;28;20388;-75
2022/06/25 09:29:45;;;;;;;2.60;1.08;;;22.20;99.90;;;;;;5013419;28;20039;-75
2022/06/25 09:32:13;;;;;;;5.30;2.00;;;22.20;99.90;;;;;;5019019;28;20490;-69
2022/06/25 09:34:39;;;;;;;2.08;1.52;;;22.20;99.90;;;;;;5014595;28;20041;-74
2022/06/25 09:37:15;;;;;;;;;;;22.20;99.90;;;;;;4998158;28;20540;-69
2022/06/25 09:39:41;;;;;;;2.42;1.65;;;22.20;99.90;;;;;;5016788;28;19917;-70
2022/06/25 09:42:18;;;;;;;;;;;22.20;99.90;;;;;;5019975;28;20033;-70
2022/06/25 09:44:43;;;;;;;4.15;1.88;;;22.30;99.90;;;;;;5017134;28;20328;-69
2022/06/25 09:47:09;;;;;;;;;;;22.30;99.90;;;;;;5013472;28;20038;-69
2022/06/25 09:49:34;;;;;;;3.10;1.55;;;22.30;99.90;;;;;;5086663;23;19978;-71
2022/06/25 09:52:04;;;;;;;3.58;1.77;;;22.30;99.90;;;;;;5012094;28;20030;-71
2022/06/25 09:54:30;;;;;;;2.97;1.92;;;22.30;99.90;;;;;;5018300;28;20030;-72
2022/06/25 09:56:56;;;;;;;8.15;1.73;;;22.30;99.90;;;;;;5001881;28;20033;-70
2022/06/25 09:59:24;;;;;;;4.70;1.60;;;22.40;99.90;;;;;;5019841;28;20497;-72
2022/06/25 10:01:50;;;;;;;4.45;1.77;;;22.40;99.90;;;;;;5013425;28;20033;-71
2022/06/25 10:04:16;;;;;;;;;;;22.50;99.90;;;;;;5014012;28;20079;-71
2022/06/25 10:06:42;;;;;;;2.22;1.02;;;22.70;99.90;;;;;;5015989;28;20008;-74
2022/06/25 10:09:09;;;;;;;4.30;1.35;;;22.70;99.90;;;;;;5012444;28;20368;-74
2022/06/25 10:11:37;;;;;;;3.13;0.90;;;22.80;99.90;;;;;;5017216;28;20124;-71
2022/06/25 10:14:03;;;;;;;3.47;1.05;;;23.00;99.90;;;;;;5022583;28;20077;-71
2022/06/25 10:16:31;;;;;;;3.30;0.82;;;23.20;99.90;;;;;;5006486;28;20128;-72
2022/06/25 10:19:01;;;;;;;2.13;1.10;;;23.30;99.90;;;;;;4991284;28;20042;-72
2022/06/25 10:21:27;;;;;;;3.97;1.00;;;23.20;99.90;;;;;;5006393;28;20096;-72
2022/06/25 10:23:54;;;;;;;;;;;23.10;99.90;;;;;;5011265;28;20773;-70
2022/06/25 10:26:21;;;;;;;1.48;0.75;;;23.10;99.90;;;;;;5006571;28;20076;-73
2022/06/25 10:28:47;;;;;;;5.22;1.50;;;23.00;99.90;;;;;;5009388;28;20037;-70
2022/06/25 10:31:16;;;;;;;2.47;1.17;;;23.00;99.90;;;;;;5017465;28;20567;-71
2022/06/25 10:33:54;;;;;;;4.25;1.25;;;22.90;99.90;;;;;;5011072;28;20038;-71
2022/06/25 10:36:39;;;;;;;2.30;1.02;;;22.90;99.90;;;;;;5000097;28;20052;-71
2022/06/25 10:39:25;;;;;;;2.13;1.42;;;22.90;99.90;;;;;;5001241;28;20038;-71
2022/06/25 10:45:04;;;;;;;2.67;1.00;;;23.00;99.90;;;;;;5005825;28;20046;-70
2022/06/25 10:47:39;;;;;;;1.95;1.10;;;23.00;99.90;;;;;;5009577;28;20567;-71
2022/06/25 10:50:23;;;;;;;4.07;1.35;;;23.00;99.90;;;;;;5004574;28;20142;-71
2022/06/25 10:53:05;;;;;;;1.60;0.98;;;23.00;99.90;;;;;;5011090;28;20042;-71
2022/06/25 10:55:49;;;;;;;2.25;1.20;;;22.90;99.90;;;;;;5008513;28;20045;-71
2022/06/25 10:58:23;;;;;;;2.30;0.80;;;22.90;99.90;;;;;;5011557;28;20046;-71
2022/06/25 11:01:01;;;;;;;1.52;0.80;;;22.80;99.90;;;;;;5015960;28;20057;-76
2022/06/25 11:03:27;;;;;;;1.77;0.82;;;22.80;99.90;;;;;;5024979;28;20053;-74
2022/06/25 11:05:53;;;;;;;;;;;22.80;99.90;;;;;;5004754;28;20292;-73
2022/06/25 11:08:18;;;;;;;2.05;1.20;;;22.80;99.90;;;;;;5022850;28;20277;-73
2022/06/25 11:10:44;;;;;;;;;;;22.70;99.90;;;;;;5008441;28;20517;-72
2022/06/25 11:13:10;;;;;;;2.25;1.30;;;22.80;99.90;;;;;;5014890;28;19918;-77
2022/06/25 11:15:43;;;;;;;;;;;22.70;99.90;;;;;;5010599;28;20594;-73
2022/06/25 11:18:10;;;;;;;2.28;0.95;;;22.60;99.90;;;;;;5016637;28;19921;-71
2022/06/25 11:20:37;;;;;;;3.05;1.20;;;22.60;99.90;;;;;;5014117;28;20041;-72
2022/06/25 11:23:03;;;;;;;3.13;1.58;;;22.50;99.90;;;;;;5024579;28;20138;-71
2022/06/25 11:28:48;;;;;;;4.32;2.20;;;22.50;99.90;;;;;;5020716;28;20810;-72
2022/06/25 11:31:21;;;;;;;4.47;1.92;;;22.60;99.90;;;;;;5017159;28;20367;-72
2022/06/25 11:33:50;;;;;;;3.63;1.73;;;22.70;99.90;;;;;;5001715;28;20470;-74
2022/06/25 11:36:17;;;;;;;6.32;1.50;;;22.80;99.90;;;;;;5006311;28;20801;-75
2022/06/25 11:38:49;;;;;;;3.50;1.85;;;23.00;99.90;;;;;;5012730;28;20284;-72
2022/06/25 11:41:22;;;;;;;1.50;1.10;;;23.20;99.90;;;;;;5012041;28;20635;-73
2022/06/25 11:43:48;;;;;;;2.40;1.70;;;23.40;99.90;;;;;;5020158;28;20661;-70
2022/06/25 11:46:19;;;;;;;2.97;1.42;;;23.40;99.90;;;;;;5018443;28;20140;-72
2022/06/25 11:48:47;;;;;;;3.03;1.75;;;23.40;99.90;;;;;;5018257;28;20700;-70
2022/06/25 11:51:14;;;;;;;2.70;1.60;;;23.30;99.90;;;;;;5017195;28;20034;-70
2022/06/25 11:53:41;;;;;;;2.75;1.90;;;23.20;99.90;;;;;;5022099;28;20454;-71
2022/06/25 11:56:07;;;;;;;2.60;1.30;;;23.10;99.90;;;;;;5018566;28;20160;-73
2022/06/25 11:58:35;;;;;;;3.08;1.63;;;23.00;99.90;;;;;;5021852;28;20041;-72
2022/06/25 12:01:02;;;;;;;2.63;1.40;;;22.90;99.90;;;;;;5005626;28;20083;-69
2022/06/25 12:03:29;;;;;;;4.43;1.70;;;22.70;99.90;;;;;;5011301;28;20029;-71
2022/06/25 12:05:59;;;;;;;3.92;2.50;;;22.60;99.90;;;;;;5015786;28;20045;-71
2022/06/25 12:08:26;;;;;;;4.55;2.80;;;22.50;99.90;;;;;;5021230;28;20041;-74
2022/06/25 12:10:57;;;;;;;4.13;2.22;;;22.40;99.90;;;;;;5012189;28;20073;-70
2022/06/25 12:13:26;;;;;;;3.75;2.50;;;22.40;99.90;;;;;;5001434;28;20045;-70
2022/06/25 12:16:03;;;;;;;6.63;3.28;;;22.30;99.90;;;;;;5021877;28;20045;-69
2022/06/25 12:18:34;;;;;;;4.20;3.33;;;22.20;99.90;;;;;;5022920;28;20053;-70
2022/06/25 12:21:00;;;;;;;4.30;3.72;;;22.10;99.90;;;;;;5015910;28;20033;-70
2022/06/25 12:23:26;;;;;;;;;;;22.00;99.90;;;;;;5026457;28;20095;-73
2022/06/25 12:25:51;;;;;;;6.90;3.08;;;21.80;99.90;;;;;;5015385;28;19979;-70
2022/06/25 12:28:32;;;;;;;;;;;21.60;99.90;;;;;;5011283;28;20034;-71
2022/06/25 12:31:08;;;;;;;4.50;3.47;;;21.40;99.90;;;;;;5020004;28;19960;-76
2022/06/25 12:33:34;;;;;;;4.73;3.20;;;21.30;99.90;;;;;;5020165;28;20046;-70
2022/06/25 12:35:59;;;;;;;7.20;3.55;;;21.20;99.90;;;;;;5022415;28;20631;-70
2022/06/25 12:38:25;;;;;;;3.85;3.03;;;21.20;99.90;;;;;;5023765;28;20345;-71
2022/06/25 12:40:54;;;;;;;6.20;3.75;;;21.30;99.90;;;;;;5018411;28;20025;-71
2022/06/25 12:43:21;;;;;;;6.38;3.78;;;21.40;99.90;;;;;;5004719;28;20053;-71
2022/06/25 12:45:49;;;;;;;6.20;3.60;;;21.50;99.90;;;;;;5024013;28;20046;-71
2022/06/25 12:48:27;;;;;;;4.18;3.15;;;21.60;99.90;;;;;;5014440;28;20038;-71
2022/06/25 12:50:53;;;;;;;5.35;3.30;;;21.60;99.90;;;;;;5013923;28;20120;-71
2022/06/25 12:53:18;;;;;;;;;;;21.60;99.90;;;;;;5009911;28;20125;-71
2022/06/25 12:55:49;;;;;;;5.80;3.53;;;21.70;99.90;;;;;;5023987;28;20016;-71
2022/06/25 12:58:16;;;;;;;4.72;3.15;;;21.80;99.90;;;;;;5023885;28;20261;-71
2022/06/25 13:00:43;;;;;;;5.55;3.38;;;21.80;99.90;;;;;;5026459;28;20422;-71
2022/06/25 13:03:10;;;;;;;4.13;3.40;;;21.90;99.90;;;;;;5025879;28;20045;-71
2022/06/25 13:05:36;;;;;;;4.88;3.20;;;21.90;99.90;;;;;;5017348;28;20112;-71
2022/06/25 13:08:03;;;;;;;6.70;4.28;;;21.90;99.90;;;;;;5028074;28;20044;-71
2022/06/25 13:10:30;;;;;;;5.38;4.13;;;22.00;99.90;;;;;;5028824;28;20562;-71
2022/06/25 13:12:55;;;;;;;5.07;4.00;;;21.90;99.90;;;;;;5003837;28;20077;-71
2022/06/25 13:15:22;;;;;;;;;;;21.90;99.90;;;;;;5021994;28;20072;-71
2022/06/25 13:17:48;;;;;;;7.38;3.53;;;21.80;99.90;;;;;;5028539;28;20359;-70